createdAt,value
2023-03-16T00:00:00.139Z,6.8
2023-03-16T00:05:00.147Z,9.6
2023-03-16T00:10:00.206Z,9.2
2023-03-16T00:15:00.153Z,9.2
2023-03-16T00:20:00.126Z,34.7
2023-03-16T00:25:00.146Z,34.7
2023-03-16T00:30:00.093Z,15.2
2023-03-16T00:35:00.133Z,14
2023-03-16T00:40:00.159Z,16.6
2023-03-16T00:45:00.136Z,18.7
2023-03-16T00:50:00.114Z,17.7
2023-03-16T00:55:00.136Z,17.7
2023-03-16T01:00:00.208Z,14.2
2023-03-16T01:05:00.105Z,15.1
2023-03-16T01:10:00.148Z,16.4
2023-03-16T01:15:00.157Z,14.5
2023-03-16T01:20:00.126Z,18
2023-03-16T01:25:00.118Z,18
2023-03-16T01:30:00.145Z,18.1
2023-03-16T01:35:00.116Z,17.9
2023-03-16T01:40:00.134Z,18.6
2023-03-16T01:45:00.099Z,15.8
2023-03-16T01:50:00.139Z,21
2023-03-16T01:55:00.140Z,21
2023-03-16T02:00:00.124Z,19.8
2023-03-16T02:05:00.108Z,20
2023-03-16T02:10:00.146Z,21.5
2023-03-16T02:15:00.145Z,18.9
2023-03-16T02:20:00.154Z,28.2
2023-03-16T02:25:00.105Z,28.2
2023-03-16T02:30:00.114Z,19.1
2023-03-16T02:35:00.143Z,26.4
2023-03-16T02:40:00.145Z,23.4
2023-03-16T02:45:00.118Z,22.6
2023-03-16T02:50:00.163Z,19.9
2023-03-16T02:55:00.166Z,19.9
2023-03-16T03:00:00.142Z,23.2
2023-03-16T03:05:00.117Z,21.5
2023-03-16T03:10:00.138Z,21.8
2023-03-16T03:15:00.140Z,25.1
2023-03-16T03:20:00.140Z,28.2
2023-03-16T03:25:00.121Z,28.2
2023-03-16T03:30:00.117Z,24.9
2023-03-16T03:35:00.132Z,22.4
2023-03-16T03:40:00.144Z,25.2
2023-03-16T03:45:00.105Z,23.4
2023-03-16T03:50:00.121Z,30.4
2023-03-16T03:55:00.138Z,30.4
2023-03-16T04:00:00.102Z,26.5
2023-03-16T04:05:00.099Z,35.1
2023-03-16T04:10:00.108Z,32.3
2023-03-16T04:15:00.148Z,41.1
2023-03-16T04:20:00.142Z,28.2
2023-03-16T04:25:00.112Z,28.2
2023-03-16T04:30:00.146Z,21.1
2023-03-16T04:35:00.145Z,23
2023-03-16T04:40:00.168Z,21.4
2023-03-16T04:45:00.136Z,23.4
2023-03-16T04:50:00.140Z,28.9
2023-03-16T04:55:00.122Z,28.9
2023-03-16T05:00:00.131Z,23.1
2023-03-16T05:05:00.121Z,22.5
2023-03-16T05:10:00.204Z,35.3
2023-03-16T05:15:00.140Z,21.2
2023-03-16T05:20:00.138Z,21.3
2023-03-16T05:25:00.132Z,21.3
2023-03-16T05:30:00.155Z,21
2023-03-16T05:35:00.113Z,18.8
2023-03-16T05:40:00.170Z,17.1
2023-03-16T05:45:00.159Z,17.8
2023-03-16T05:50:00.131Z,24.6
2023-03-16T05:55:00.122Z,24.6
2023-03-16T06:00:00.158Z,18.3
2023-03-16T06:05:00.131Z,16.5
2023-03-16T06:10:00.139Z,37.5
2023-03-16T06:15:00.141Z,30.4
2023-03-16T06:20:00.185Z,23.6
2023-03-16T06:25:00.149Z,23.6
2023-03-16T06:30:00.106Z,42.3
2023-03-16T06:35:00.131Z,24.8
2023-03-16T06:40:00.148Z,29.3
2023-03-16T06:45:00.126Z,32.4
2023-03-16T06:50:00.131Z,23.4
2023-03-16T06:55:00.172Z,23.4
2023-03-16T07:00:00.135Z,41.4
2023-03-16T07:05:00.162Z,17.2
2023-03-16T07:10:00.203Z,64.5
2023-03-16T07:15:00.137Z,19.1
2023-03-16T07:20:00.162Z,20.1
2023-03-16T07:25:00.117Z,20.1
2023-03-16T07:30:00.112Z,18.2
2023-03-16T07:35:00.132Z,17.3
2023-03-16T07:40:00.118Z,24.8
2023-03-16T07:45:00.132Z,20.3
2023-03-16T07:50:00.155Z,13.4
2023-03-16T07:55:00.139Z,13.4
2023-03-16T08:00:00.116Z,15.2
2023-03-16T08:05:00.126Z,15.1
2023-03-16T08:10:00.128Z,20.9
2023-03-16T08:15:00.129Z,16.1
2023-03-16T08:20:00.127Z,13
2023-03-16T08:25:00.141Z,13
2023-03-16T08:30:00.137Z,13.5
2023-03-16T08:35:00.129Z,13.8
2023-03-16T08:40:00.151Z,13.2
2023-03-16T08:45:00.121Z,14
2023-03-16T08:50:00.173Z,12.8
2023-03-16T08:55:03.644Z,12.8
2023-03-16T09:00:00.122Z,36.2
2023-03-16T09:05:00.119Z,14
2023-03-16T09:10:00.159Z,10.7
2023-03-16T09:15:00.147Z,11
2023-03-16T09:20:11.421Z,11
2023-03-16T09:25:00.132Z,11
2023-03-16T09:30:01.066Z,11.2
2023-03-16T09:35:00.138Z,10.1
2023-03-16T09:40:06.470Z,10.3
2023-03-16T09:45:00.122Z,11.5
2023-03-16T09:50:00.129Z,11.5
2023-03-16T09:55:00.175Z,11.5
2023-03-16T10:00:00.124Z,11
2023-03-16T10:05:00.112Z,11.6
2023-03-16T10:10:00.165Z,10.4
2023-03-16T10:15:00.186Z,11.7
2023-03-16T10:20:00.185Z,11.3
2023-03-16T10:25:00.145Z,11.3
2023-03-16T10:30:00.109Z,12.3
2023-03-16T10:35:00.135Z,11.6
2023-03-16T10:40:00.301Z,10.8
2023-03-16T10:45:01.843Z,12.1
2023-03-16T10:50:00.170Z,11.6
2023-03-16T10:55:00.153Z,11.6
2023-03-16T11:00:00.143Z,9.5
2023-03-16T11:05:00.188Z,9.9
2023-03-16T11:10:00.148Z,9.1
2023-03-16T11:15:00.108Z,9.3
2023-03-16T11:20:00.116Z,9.9
2023-03-16T11:25:00.156Z,9.9
2023-03-16T11:30:00.177Z,5.9
2023-03-16T11:35:00.143Z,8.3
2023-03-16T11:40:00.157Z,8
2023-03-16T11:45:00.131Z,8.1
2023-03-16T11:50:00.144Z,7.4
2023-03-16T11:55:00.140Z,7.4
2023-03-16T12:00:01.277Z,6.8
2023-03-16T12:05:00.141Z,6.2
2023-03-16T12:10:00.148Z,7.7
2023-03-16T12:15:00.121Z,6.9
2023-03-16T12:20:00.147Z,9.1
2023-03-16T12:25:00.131Z,9.1
2023-03-16T12:30:00.125Z,7.8
2023-03-16T12:35:00.134Z,6.4
2023-03-16T12:40:00.132Z,6.3
2023-03-16T12:45:00.114Z,5.4
2023-03-16T12:50:00.198Z,5.8
2023-03-16T12:55:00.164Z,5.8
2023-03-16T13:00:00.124Z,7.5
2023-03-16T13:05:00.150Z,7.3
2023-03-16T13:10:00.104Z,7.4
2023-03-16T13:15:00.125Z,5.6
2023-03-16T13:20:00.119Z,5.3
2023-03-16T13:25:00.130Z,5.3
2023-03-16T13:30:00.139Z,6
2023-03-16T13:35:00.151Z,5.1
2023-03-16T13:40:00.127Z,4.9
2023-03-16T13:45:00.127Z,6.2
2023-03-16T13:50:00.145Z,5
2023-03-16T13:55:00.159Z,5
2023-03-16T14:00:00.102Z,4.8
2023-03-16T14:05:00.110Z,5.1
2023-03-16T14:10:00.134Z,4.5
2023-03-16T14:15:00.136Z,6.6
2023-03-16T14:20:00.181Z,4.9
2023-03-16T14:25:00.116Z,4.9
2023-03-16T14:30:00.136Z,5.1
2023-03-16T14:35:00.421Z,5.8
2023-03-16T14:40:00.162Z,4.4
2023-03-16T14:45:00.132Z,5
2023-03-16T14:50:00.123Z,3.9
2023-03-16T14:55:02.392Z,3.9
2023-03-16T15:00:00.120Z,4
2023-03-16T15:05:00.117Z,4.1
2023-03-16T15:10:00.164Z,5.2
2023-03-16T15:15:00.132Z,3.9
2023-03-16T15:20:00.157Z,3.8
2023-03-16T15:25:00.211Z,3.8
2023-03-16T15:30:00.162Z,3.5
2023-03-16T15:35:00.111Z,5.2
2023-03-16T15:40:00.137Z,5.3
2023-03-16T15:45:00.123Z,4
2023-03-16T15:50:00.127Z,3.8
2023-03-16T15:55:00.180Z,3.8
2023-03-16T16:00:00.113Z,4.5
2023-03-16T16:05:00.142Z,3.6
2023-03-16T16:10:00.112Z,3.6
2023-03-16T16:15:00.120Z,3.6
2023-03-16T16:20:00.120Z,4.8
2023-03-16T16:25:00.146Z,4.8
2023-03-16T16:30:00.120Z,4.6
2023-03-16T16:35:04.416Z,3
2023-03-16T16:40:00.124Z,3.3
2023-03-16T16:45:00.105Z,2.5
2023-03-16T16:50:00.111Z,4
2023-03-16T16:55:00.134Z,4
2023-03-16T17:00:00.119Z,3.3
2023-03-16T17:05:00.163Z,3
2023-03-16T17:10:00.145Z,4.5
2023-03-16T17:15:00.123Z,4.1
2023-03-16T17:20:00.159Z,5
2023-03-16T17:25:00.140Z,5
2023-03-16T17:30:00.221Z,4.8
2023-03-16T17:35:00.127Z,5.3
2023-03-16T17:40:00.176Z,6.2
2023-03-16T17:45:00.171Z,7.6
2023-03-16T17:50:00.325Z,6.6
2023-03-16T17:55:00.133Z,6.6
2023-03-16T18:00:00.242Z,6.3
2023-03-16T18:05:00.122Z,6.6
2023-03-16T18:10:00.194Z,8
2023-03-16T18:15:00.147Z,8.5
2023-03-16T18:20:00.187Z,8
2023-03-16T18:25:00.113Z,8
2023-03-16T18:30:00.118Z,6.7
2023-03-16T18:35:01.706Z,7.9
2023-03-16T18:40:00.130Z,7.4
2023-03-16T18:45:00.126Z,8
2023-03-16T18:50:00.166Z,7.6
2023-03-16T18:55:00.143Z,7.6
2023-03-16T19:00:00.127Z,9.1
2023-03-16T19:05:00.114Z,8.9
2023-03-16T19:10:00.131Z,6.7
2023-03-16T19:15:00.115Z,6.9
2023-03-16T19:20:00.110Z,8.7
2023-03-16T19:25:00.108Z,8.7
2023-03-16T19:30:00.168Z,9.4
2023-03-16T19:35:00.215Z,7.8
2023-03-16T19:40:00.159Z,7.9
2023-03-16T19:45:00.181Z,7.2
2023-03-16T19:50:00.126Z,8.2
2023-03-16T19:55:00.145Z,8.2
2023-03-16T20:00:00.125Z,7.5
2023-03-16T20:05:00.108Z,9
2023-03-16T20:10:00.223Z,7.5
2023-03-16T20:15:00.161Z,9
2023-03-16T20:20:00.162Z,8.8
2023-03-16T20:25:00.134Z,8.8
2023-03-16T20:30:00.127Z,9.1
2023-03-16T20:35:00.112Z,9.8
2023-03-16T20:40:00.179Z,8.4
2023-03-16T20:45:00.130Z,9
2023-03-16T20:50:00.139Z,9.8
2023-03-16T20:55:00.125Z,9.8
2023-03-16T21:00:00.132Z,10.9
2023-03-16T21:05:00.275Z,10.2
2023-03-16T21:10:00.150Z,12.9
2023-03-16T21:15:00.124Z,10
2023-03-16T21:20:00.163Z,10.5
2023-03-16T21:25:00.117Z,10.5
2023-03-16T21:30:00.142Z,8.9
2023-03-16T21:35:00.111Z,9.8
2023-03-16T21:40:01.196Z,14.4
2023-03-16T21:45:00.138Z,9.9
2023-03-16T21:50:00.164Z,8.6
2023-03-16T21:55:00.163Z,8.6
2023-03-16T22:00:00.116Z,10.5
2023-03-16T22:05:00.119Z,10.6
2023-03-16T22:10:00.134Z,11.1
2023-03-16T22:15:00.172Z,10.7
2023-03-16T22:20:00.134Z,11.2
2023-03-16T22:25:00.135Z,11.2
2023-03-16T22:30:00.147Z,11
2023-03-16T22:35:00.107Z,11.7
2023-03-16T22:40:00.147Z,11
2023-03-16T22:45:00.131Z,11.4
2023-03-16T22:50:00.209Z,11.9
2023-03-16T22:55:00.116Z,11.9
2023-03-16T23:00:00.137Z,12.8
2023-03-16T23:05:00.302Z,11.5
2023-03-16T23:10:00.176Z,11
2023-03-16T23:15:00.119Z,11.1
2023-03-16T23:20:00.148Z,11.6
2023-03-16T23:25:00.144Z,11.6
2023-03-16T23:30:00.182Z,10.9
2023-03-16T23:35:00.139Z,12
2023-03-16T23:40:00.138Z,10.4
2023-03-16T23:45:00.110Z,9.4
2023-03-16T23:50:00.140Z,11.9
2023-03-16T23:55:00.153Z,11.9
